createdAt,value
2023-04-06T00:00:09.791Z,100939.88
2023-04-06T00:01:12.863Z,100933.19
2023-04-06T00:02:14.438Z,100937.19
2023-04-06T00:03:17.836Z,100932.63
2023-04-06T00:04:19.399Z,100935.16
2023-04-06T00:05:22.762Z,100928.41
2023-04-06T00:06:24.353Z,100931.00
2023-04-06T00:07:29.156Z,100930.53
2023-04-06T00:08:30.866Z,100924.94
2023-04-06T00:09:33.278Z,100925.31
2023-04-06T00:10:35.019Z,100923.63
2023-04-06T00:11:37.535Z,100921.03
2023-04-06T00:12:39.086Z,100925.28
2023-04-06T00:13:41.591Z,100918.25
2023-04-06T00:14:43.146Z,100920.41
2023-04-06T00:15:45.643Z,100910.66
2023-04-06T00:16:47.179Z,100926.38
2023-04-06T00:17:49.826Z,100925.53
2023-04-06T00:18:51.454Z,100926.50
2023-04-06T00:19:53.890Z,100920.38
2023-04-06T00:20:55.377Z,100932.28
2023-04-06T00:21:58.101Z,100929.56
2023-04-06T00:23:01.489Z,100920.59
2023-04-06T00:24:04.894Z,100928.41
2023-04-06T00:25:06.880Z,100921.69
2023-04-06T00:26:10.054Z,100913.09
2023-04-06T00:27:11.673Z,100922.50
2023-04-06T00:28:14.222Z,100921.69
2023-04-06T00:29:16.091Z,100921.34
2023-04-06T00:30:18.837Z,100929.94
2023-04-06T00:31:20.556Z,100919.22
2023-04-06T00:32:23.075Z,100918.84
2023-04-06T00:33:24.998Z,100918.63
2023-04-06T00:34:27.481Z,100918.38
2023-04-06T00:35:29.010Z,100917.84
2023-04-06T00:36:31.449Z,100917.34
2023-04-06T00:37:33.341Z,100912.72
2023-04-06T00:38:37.164Z,100920.41
2023-04-06T00:39:38.685Z,100913.34
2023-04-06T00:40:41.656Z,100919.91
2023-04-06T00:41:49.040Z,100916.91
2023-04-06T00:42:51.799Z,100915.44
2023-04-06T00:43:55.076Z,100902.84
2023-04-06T00:44:59.466Z,100907.00
2023-04-06T00:46:01.055Z,100907.00
2023-04-06T00:47:03.848Z,100913.34
2023-04-06T00:48:07.156Z,100912.00
2023-04-06T00:49:11.026Z,100909.00
2023-04-06T00:50:13.788Z,100906.97
2023-04-06T00:51:15.642Z,100905.81
2023-04-06T00:52:18.202Z,100903.09
2023-04-06T00:53:19.757Z,100909.41
2023-04-06T00:54:23.914Z,100904.13
2023-04-06T00:55:25.627Z,100896.78
2023-04-06T00:56:28.472Z,100899.59
2023-04-06T00:57:30.646Z,100905.03
2023-04-06T00:58:33.357Z,100905.16
2023-04-06T00:59:35.313Z,100903.84
2023-04-06T01:00:37.833Z,100907.28
2023-04-06T01:01:39.411Z,100904.00
2023-04-06T01:02:42.091Z,100909.25
2023-04-06T01:03:45.375Z,100899.75
2023-04-06T01:04:47.937Z,100902.97
2023-04-06T01:05:49.642Z,100909.19
2023-04-06T01:06:52.494Z,100903.88
2023-04-06T01:07:54.015Z,100904.16
2023-04-06T01:08:56.640Z,100906.00
2023-04-06T01:09:59.538Z,100901.91
2023-04-06T01:11:02.797Z,100901.19
2023-04-06T01:12:07.011Z,100894.72
2023-04-06T01:13:09.527Z,100898.97
2023-04-06T01:14:11.554Z,100898.50
2023-04-06T01:15:14.695Z,100900.75
2023-04-06T01:16:16.410Z,100901.44
2023-04-06T01:17:18.944Z,100898.25
2023-04-06T01:18:26.616Z,100892.63
2023-04-06T01:19:29.956Z,100895.09
2023-04-06T01:20:31.488Z,100895.72
2023-04-06T01:21:34.217Z,100892.34
2023-04-06T01:22:37.049Z,100889.03
2023-04-06T01:23:39.744Z,100890.84
2023-04-06T01:24:41.250Z,100884.06
2023-04-06T01:25:43.729Z,100882.13
2023-04-06T01:26:45.570Z,100885.75
2023-04-06T01:27:48.098Z,100884.94
2023-04-06T01:28:49.570Z,100886.50
2023-04-06T01:29:51.989Z,100888.25
2023-04-06T01:30:53.503Z,100883.78
2023-04-06T01:31:56.333Z,100878.97
2023-04-06T01:32:57.972Z,100880.50
2023-04-06T01:34:00.573Z,100883.06
2023-04-06T01:35:02.125Z,100881.78
2023-04-06T01:36:05.388Z,100878.38
2023-04-06T01:37:07.018Z,100884.03
2023-04-06T01:38:10.875Z,100879.91
2023-04-06T01:39:12.385Z,100877.44
2023-04-06T01:40:15.585Z,100874.13
2023-04-06T01:41:17.074Z,100881.00
2023-04-06T01:42:19.565Z,100884.28
2023-04-06T01:43:21.602Z,100881.69
2023-04-06T01:44:24.075Z,100881.09
2023-04-06T01:45:25.691Z,100868.50
2023-04-06T01:46:28.277Z,100872.97
2023-04-06T01:47:30.193Z,100877.22
2023-04-06T01:48:31.716Z,100861.44
2023-04-06T01:49:34.848Z,100878.63
2023-04-06T01:50:36.429Z,100871.72
2023-04-06T01:51:39.050Z,100876.13
2023-04-06T01:52:40.669Z,100877.31
2023-04-06T01:53:44.507Z,100869.41
2023-04-06T01:54:46.083Z,100865.91
2023-04-06T01:55:48.666Z,100871.72
2023-04-06T01:56:51.568Z,100874.41
2023-04-06T01:57:54.033Z,100870.13
2023-04-06T01:58:56.125Z,100876.50
2023-04-06T01:59:58.577Z,100876.19
2023-04-06T02:01:00.084Z,100876.63
2023-04-06T02:02:02.680Z,100871.03
2023-04-06T02:03:04.643Z,100867.44
2023-04-06T02:04:07.100Z,100872.13
2023-04-06T02:05:09.263Z,100865.91
2023-04-06T02:06:11.798Z,100876.03
2023-04-06T02:07:13.325Z,100870.72
2023-04-06T02:08:15.947Z,100873.56
2023-04-06T02:09:19.025Z,100871.66
2023-04-06T02:10:21.545Z,100872.38
2023-04-06T02:11:23.041Z,100875.94
2023-04-06T02:12:25.937Z,100870.63
2023-04-06T02:13:27.481Z,100876.03
2023-04-06T02:14:29.949Z,100871.66
2023-04-06T02:15:31.459Z,100864.38
2023-04-06T02:16:34.086Z,100868.72
2023-04-06T02:17:35.886Z,100866.25
2023-04-06T02:18:38.416Z,100862.81
2023-04-06T02:19:39.930Z,100863.78
2023-04-06T02:20:42.646Z,100866.50
2023-04-06T02:21:44.197Z,100869.31
2023-04-06T02:22:46.846Z,100868.72
2023-04-06T02:23:48.409Z,100871.09
2023-04-06T02:24:52.220Z,100869.66
2023-04-06T02:25:54.974Z,100864.38
2023-04-06T02:26:56.460Z,100864.84
2023-04-06T02:27:58.910Z,100865.91
2023-04-06T02:29:00.589Z,100870.16
2023-04-06T02:30:03.160Z,100868.75
2023-04-06T02:31:04.679Z,100867.66
2023-04-06T02:32:07.321Z,100869.63
2023-04-06T02:33:08.835Z,100866.94
2023-04-06T02:34:13.013Z,100862.19
2023-04-06T02:35:14.585Z,100868.09
2023-04-06T02:36:17.262Z,100863.03
2023-04-06T02:37:18.804Z,100864.44
2023-04-06T02:38:21.650Z,100860.13
2023-04-06T02:39:23.937Z,100862.59
2023-04-06T02:40:27.813Z,100858.94
2023-04-06T02:41:29.308Z,100862.94
2023-04-06T02:42:31.738Z,100861.25
2023-04-06T02:43:33.569Z,100866.44
2023-04-06T02:44:36.192Z,100864.78
2023-04-06T02:45:37.683Z,100865.75
2023-04-06T02:46:40.346Z,100864.50
2023-04-06T02:47:41.892Z,100867.47
2023-04-06T02:48:44.459Z,100866.44
2023-04-06T02:49:47.437Z,100867.13
2023-04-06T02:50:51.123Z,100859.63
2023-04-06T02:51:52.669Z,100858.63
2023-04-06T02:52:55.510Z,100864.00
2023-04-06T02:53:57.019Z,100864.72
2023-04-06T02:54:59.496Z,100866.34
2023-04-06T02:56:02.354Z,100863.06
2023-04-06T02:57:04.832Z,100865.56
2023-04-06T02:58:06.679Z,100873.19
2023-04-06T02:59:09.578Z,100867.94
2023-04-06T03:00:12.798Z,100872.13
2023-04-06T03:01:15.830Z,100866.66
2023-04-06T03:02:17.462Z,100871.09
2023-04-06T03:03:20.146Z,100861.34
2023-04-06T03:04:23.755Z,100865.63
2023-04-06T03:05:26.275Z,100871.63
2023-04-06T03:06:27.781Z,100870.84
2023-04-06T03:07:30.732Z,100871.94
2023-04-06T03:08:32.209Z,100875.78
2023-04-06T03:09:35.280Z,100874.19
2023-04-06T03:10:36.885Z,100874.16
2023-04-06T03:11:40.716Z,100871.44
2023-04-06T03:12:42.720Z,100882.38
2023-04-06T03:13:45.254Z,100869.41
2023-04-06T03:14:46.768Z,100873.19
2023-04-06T03:15:49.479Z,100863.28
2023-04-06T03:16:51.101Z,100874.00
2023-04-06T03:17:53.578Z,100865.97
2023-04-06T03:18:55.133Z,100871.00
2023-04-06T03:19:57.575Z,100867.88
2023-04-06T03:20:59.174Z,100872.91
2023-04-06T03:22:01.789Z,100873.19
2023-04-06T03:23:03.332Z,100871.34
2023-04-06T03:24:06.589Z,100876.50
2023-04-06T03:25:08.520Z,100873.28
2023-04-06T03:26:11.052Z,100867.78
2023-04-06T03:27:14.037Z,100872.97
2023-04-06T03:28:17.012Z,100872.75
2023-04-06T03:29:18.528Z,100879.78
2023-04-06T03:30:21.392Z,100876.06
2023-04-06T03:31:23.023Z,100876.34
2023-04-06T03:32:25.700Z,100875.56
2023-04-06T03:33:28.069Z,100866.75
2023-04-06T03:34:30.561Z,100872.38
2023-04-06T03:35:32.113Z,100879.69
2023-04-06T03:36:36.191Z,100875.72
2023-04-06T03:37:37.681Z,100869.94
2023-04-06T03:38:41.409Z,100881.41
2023-04-06T03:39:43.071Z,100876.06
2023-04-06T03:40:45.522Z,100871.97
2023-04-06T03:41:47.160Z,100873.78
2023-04-06T03:42:51.703Z,100878.53
2023-04-06T03:43:53.516Z,100884.66
2023-04-06T03:44:56.042Z,100884.53
2023-04-06T03:45:57.592Z,100883.75
2023-04-06T03:47:00.383Z,100885.44
2023-04-06T03:48:01.974Z,100879.59
2023-04-06T03:49:04.432Z,100885.34
2023-04-06T03:50:07.142Z,100882.75
2023-04-06T03:51:09.660Z,100883.66
2023-04-06T03:52:11.228Z,100884.19
2023-04-06T03:53:13.684Z,100886.81
2023-04-06T03:54:15.261Z,100878.50
2023-04-06T03:55:17.755Z,100886.44
2023-04-06T03:56:19.359Z,100876.63
2023-04-06T03:57:21.816Z,100886.16
2023-04-06T03:58:24.742Z,100885.03
2023-04-06T03:59:27.267Z,100891.22
2023-04-06T04:00:29.085Z,100887.41
2023-04-06T04:01:31.640Z,100886.00
2023-04-06T04:02:33.327Z,100885.75
2023-04-06T04:03:35.912Z,100886.97
2023-04-06T04:04:37.552Z,100888.97
2023-04-06T04:05:40.099Z,100892.75
2023-04-06T04:06:41.599Z,100888.88
2023-04-06T04:07:44.049Z,100890.50
2023-04-06T04:08:45.664Z,100883.72
2023-04-06T04:09:48.139Z,100892.78
2023-04-06T04:10:49.738Z,100896.28
2023-04-06T04:11:52.209Z,100890.31
2023-04-06T04:12:53.698Z,100894.03
2023-04-06T04:13:57.462Z,100895.47
2023-04-06T04:14:59.084Z,100895.59
2023-04-06T04:16:01.881Z,100890.22
2023-04-06T04:17:03.494Z,100895.34
2023-04-06T04:18:06.072Z,100895.13
2023-04-06T04:19:07.979Z,100905.13
2023-04-06T04:20:11.225Z,100897.69
2023-04-06T04:21:12.709Z,100904.94
2023-04-06T04:22:15.333Z,100900.56
2023-04-06T04:23:16.804Z,100896.69
2023-04-06T04:24:19.314Z,100893.63
2023-04-06T04:25:21.035Z,100895.47
2023-04-06T04:26:23.602Z,100895.66
2023-04-06T04:27:25.121Z,100905.56
2023-04-06T04:28:27.630Z,100903.72
2023-04-06T04:29:30.522Z,100905.25
2023-04-06T04:30:32.976Z,100893.41
2023-04-06T04:31:34.592Z,100893.63
2023-04-06T04:32:37.171Z,100902.88
2023-04-06T04:33:38.682Z,100896.97
2023-04-06T04:34:41.694Z,100901.78
2023-04-06T04:35:43.286Z,100908.44
2023-04-06T04:36:46.000Z,100896.31
2023-04-06T04:37:47.553Z,100905.06
2023-04-06T04:38:50.288Z,100907.44
2023-04-06T04:39:51.887Z,100905.19
2023-04-06T04:40:54.359Z,100909.75
2023-04-06T04:41:55.880Z,100905.72
2023-04-06T04:42:58.316Z,100901.31
2023-04-06T04:43:59.974Z,100902.72
2023-04-06T04:45:03.903Z,100907.03
2023-04-06T04:46:05.740Z,100906.38
2023-04-06T04:47:08.428Z,100914.69
2023-04-06T04:48:10.312Z,100908.88
2023-04-06T04:49:12.886Z,100918.13
2023-04-06T04:50:17.429Z,100914.66
2023-04-06T04:51:20.612Z,100911.41
2023-04-06T04:52:22.202Z,100916.38
2023-04-06T04:53:25.241Z,100912.31
2023-04-06T04:54:27.768Z,100919.34
2023-04-06T04:55:30.423Z,100911.72
2023-04-06T04:56:31.987Z,100915.69
2023-04-06T04:57:34.494Z,100914.56
2023-04-06T04:58:36.902Z,100910.63
2023-04-06T04:59:39.476Z,100911.56
2023-04-06T05:00:42.391Z,100915.13
2023-04-06T05:01:54.277Z,100909.94
2023-04-06T05:02:57.730Z,100917.94
2023-04-06T05:03:59.322Z,100907.13
2023-04-06T05:05:02.036Z,100912.66
2023-04-06T05:06:04.001Z,100910.34
2023-04-06T05:07:07.671Z,100914.34
2023-04-06T05:08:10.133Z,100912.66
2023-04-06T05:09:11.623Z,100914.97
2023-04-06T05:10:14.236Z,100914.56
2023-04-06T05:11:16.001Z,100915.88
2023-04-06T05:12:18.533Z,100904.25
2023-04-06T05:13:20.572Z,100914.81
2023-04-06T05:14:23.044Z,100919.53
2023-04-06T05:15:24.549Z,100914.34
2023-04-06T05:16:28.600Z,100916.63
2023-04-06T05:17:30.367Z,100916.25
2023-04-06T05:18:32.901Z,100914.03
2023-04-06T05:19:34.438Z,100917.81
2023-04-06T05:20:37.615Z,100918.00
2023-04-06T05:21:39.130Z,100919.66
2023-04-06T05:22:41.647Z,100924.81
2023-04-06T05:23:43.297Z,100919.44
2023-04-06T05:24:46.224Z,100913.03
2023-04-06T05:25:47.799Z,100914.28
2023-04-06T05:26:50.502Z,100921.69
2023-04-06T05:27:52.194Z,100918.31
2023-04-06T05:28:55.666Z,100919.19
2023-04-06T05:29:57.965Z,100925.63
2023-04-06T05:31:00.705Z,100923.16
2023-04-06T05:32:03.686Z,100929.56
2023-04-06T05:33:06.206Z,100925.22
2023-04-06T05:34:07.780Z,100929.78
2023-04-06T05:35:11.164Z,100925.47
2023-04-06T05:36:14.491Z,100922.56
2023-04-06T05:37:17.889Z,100925.44
2023-04-06T05:38:19.366Z,100927.94
2023-04-06T05:39:21.827Z,100922.97
2023-04-06T05:40:23.354Z,100922.34
2023-04-06T05:41:25.883Z,100923.41
2023-04-06T05:42:28.251Z,100929.19
2023-04-06T05:43:30.736Z,100925.25
2023-04-06T05:44:32.302Z,100929.19
2023-04-06T05:45:35.949Z,100930.00
2023-04-06T05:46:37.516Z,100927.09
2023-04-06T05:47:41.398Z,100927.28
2023-04-06T05:48:42.926Z,100928.28
2023-04-06T05:49:45.723Z,100931.13
2023-04-06T05:50:50.455Z,100930.50
2023-04-06T05:51:53.046Z,100921.13
2023-04-06T05:52:54.548Z,100921.28
2023-04-06T05:53:57.036Z,100926.63
2023-04-06T05:54:58.654Z,100932.84
2023-04-06T05:56:02.844Z,100921.50
2023-04-06T05:57:04.586Z,100928.88
2023-04-06T05:58:06.990Z,100934.91
2023-04-06T05:59:08.820Z,100925.16
2023-04-06T06:00:12.942Z,100934.50
2023-04-06T06:01:15.387Z,100931.53
2023-04-06T06:02:16.887Z,100927.66
2023-04-06T06:03:21.081Z,100919.47
2023-04-06T06:04:22.638Z,100929.59
2023-04-06T06:05:25.437Z,100924.69
2023-04-06T06:06:29.898Z,100923.56
2023-04-06T06:07:32.585Z,100920.72
2023-04-06T06:08:34.571Z,100920.03
2023-04-06T06:09:37.026Z,100922.50
2023-04-06T06:10:39.467Z,100923.94
2023-04-06T06:11:43.023Z,100925.63
2023-04-06T06:12:44.570Z,100921.13
2023-04-06T06:13:47.072Z,100922.94
2023-04-06T06:14:48.563Z,100923.53
2023-04-06T06:15:51.243Z,100929.50
2023-04-06T06:16:52.739Z,100923.31
2023-04-06T06:17:55.341Z,100926.03
2023-04-06T06:18:58.207Z,100923.44
2023-04-06T06:20:01.761Z,100929.63
2023-04-06T06:21:04.949Z,100930.94
2023-04-06T06:22:07.427Z,100936.34
2023-04-06T06:23:09.014Z,100934.31
2023-04-06T06:24:11.471Z,100939.84
2023-04-06T06:25:12.983Z,100939.25
2023-04-06T06:26:15.589Z,100933.53
2023-04-06T06:27:18.101Z,100938.31
2023-04-06T06:28:19.586Z,100930.81
2023-04-06T06:29:22.032Z,100936.97
2023-04-06T06:30:23.714Z,100932.97
2023-04-06T06:31:26.287Z,100937.78
2023-04-06T06:32:27.796Z,100935.00
2023-04-06T06:33:30.356Z,100938.97
2023-04-06T06:34:33.291Z,100941.31
2023-04-06T06:35:35.841Z,100937.56
2023-04-06T06:36:38.375Z,100931.03
2023-04-06T06:37:39.878Z,100936.84
2023-04-06T06:38:42.648Z,100932.50
2023-04-06T06:39:44.308Z,100940.44
2023-04-06T06:40:47.923Z,100943.13
2023-04-06T06:41:49.525Z,100931.94
2023-04-06T06:42:52.975Z,100939.38
2023-04-06T06:43:54.527Z,100933.34
2023-04-06T06:44:57.264Z,100934.56
2023-04-06T06:45:59.779Z,100936.63
2023-04-06T06:47:02.408Z,100937.31
2023-04-06T06:48:04.185Z,100936.03
2023-04-06T06:49:06.951Z,100940.84
2023-04-06T06:50:10.501Z,100938.28
2023-04-06T06:51:13.241Z,100937.97
2023-04-06T06:52:16.032Z,100938.78
2023-04-06T06:53:18.000Z,100938.13
2023-04-06T06:54:20.523Z,100940.00
2023-04-06T06:55:22.696Z,100943.63
2023-04-06T06:56:26.656Z,100939.78
2023-04-06T06:57:28.953Z,100945.94
2023-04-06T06:58:31.671Z,100934.84
2023-04-06T06:59:33.471Z,100937.75
2023-04-06T07:00:36.134Z,100936.13
2023-04-06T07:01:37.776Z,100930.47
2023-04-06T07:02:40.769Z,100930.19
2023-04-06T07:03:43.342Z,100930.06
2023-04-06T07:04:45.086Z,100933.16
2023-04-06T07:05:54.451Z,100927.63
2023-04-06T07:06:56.177Z,100930.78
2023-04-06T07:07:58.855Z,100939.66
2023-04-06T07:09:00.365Z,100922.25
2023-04-06T07:10:03.196Z,100928.50
2023-04-06T07:11:05.852Z,100932.25
2023-04-06T07:12:07.523Z,100929.94
2023-04-06T07:13:09.950Z,100930.28
2023-04-06T07:14:12.641Z,100928.50
2023-04-06T07:15:15.405Z,100941.94
2023-04-06T07:16:17.318Z,100929.47
2023-04-06T07:17:19.914Z,100936.19
2023-04-06T07:18:21.858Z,100934.66
2023-04-06T07:19:24.448Z,100929.44
2023-04-06T07:20:28.998Z,100935.59
2023-04-06T07:21:32.840Z,100936.63
2023-04-06T07:22:35.647Z,100935.72
2023-04-06T07:23:38.149Z,100937.56
2023-04-06T07:24:40.731Z,100940.25
2023-04-06T07:25:43.530Z,100941.19
2023-04-06T07:26:46.475Z,100939.75
2023-04-06T07:27:49.445Z,100942.19
2023-04-06T07:28:52.281Z,100931.69
2023-04-06T07:29:53.788Z,100939.16
2023-04-06T07:30:56.308Z,100938.63
2023-04-06T07:31:57.914Z,100930.84
2023-04-06T07:33:01.830Z,100935.59
2023-04-06T07:34:04.461Z,100939.16
2023-04-06T07:35:06.360Z,100932.94
2023-04-06T07:36:08.989Z,100935.81
2023-04-06T07:37:11.878Z,100942.63
2023-04-06T07:38:14.632Z,100925.88
2023-04-06T07:39:16.222Z,100937.19
2023-04-06T07:40:19.066Z,100932.66
2023-04-06T07:41:21.718Z,100937.81
2023-04-06T07:42:23.225Z,100934.38
2023-04-06T07:43:26.146Z,100938.66
2023-04-06T07:44:27.800Z,100933.22
2023-04-06T07:45:30.340Z,100931.31
2023-04-06T07:46:32.993Z,100921.63
2023-04-06T07:47:34.984Z,100932.94
2023-04-06T07:48:38.468Z,100934.06
2023-04-06T07:49:39.986Z,100936.41
2023-04-06T07:50:42.479Z,100926.53
2023-04-06T07:51:44.977Z,100927.69
2023-04-06T07:52:48.577Z,100926.63
2023-04-06T07:53:52.201Z,100928.38
2023-04-06T07:54:54.042Z,100929.94
2023-04-06T07:55:57.357Z,100925.00
2023-04-06T07:56:59.817Z,100925.56
2023-04-06T07:58:02.343Z,100922.41
2023-04-06T07:59:05.298Z,100928.59
2023-04-06T08:00:10.386Z,100937.00
2023-04-06T08:01:12.859Z,100926.81
2023-04-06T08:02:14.478Z,100928.50
2023-04-06T08:03:17.691Z,100925.22
2023-04-06T08:04:19.426Z,100923.03
2023-04-06T08:05:22.350Z,100923.47
2023-04-06T08:06:23.975Z,100919.69
2023-04-06T08:07:26.564Z,100921.16
2023-04-06T08:08:29.980Z,100921.16
2023-04-06T08:09:32.478Z,100923.75
2023-04-06T08:10:35.458Z,100917.25
2023-04-06T08:11:37.968Z,100921.03
2023-04-06T08:12:39.572Z,100914.84
2023-04-06T08:13:41.989Z,100921.34
2023-04-06T08:14:43.554Z,100915.38
2023-04-06T08:15:46.183Z,100913.78
2023-04-06T08:16:48.887Z,100921.09
2023-04-06T08:17:50.587Z,100918.34
2023-04-06T08:18:53.102Z,100913.81
2023-04-06T08:19:56.974Z,100921.50
2023-04-06T08:20:59.580Z,100916.97
2023-04-06T08:22:02.106Z,100920.81
2023-04-06T08:23:03.863Z,100922.72
2023-04-06T08:24:10.913Z,100926.00
2023-04-06T08:25:12.548Z,100916.13
2023-04-06T08:26:15.072Z,100914.88
2023-04-06T08:27:16.619Z,100920.41
2023-04-06T08:28:19.095Z,100919.34
2023-04-06T08:29:20.726Z,100915.31
2023-04-06T08:30:23.569Z,100920.75
2023-04-06T08:31:29.025Z,100918.56
2023-04-06T08:32:30.904Z,100918.69
2023-04-06T08:33:36.024Z,100915.63
2023-04-06T08:34:40.855Z,100919.66
2023-04-06T08:35:42.721Z,100912.31
2023-04-06T08:36:46.545Z,100916.84
2023-04-06T08:37:48.230Z,100914.09
2023-04-06T08:38:51.533Z,100923.25
2023-04-06T08:39:55.388Z,100916.59
2023-04-06T08:40:56.964Z,100916.16
2023-04-06T08:42:01.126Z,100914.38
2023-04-06T08:43:04.829Z,100918.69
2023-04-06T08:44:07.732Z,100922.53
2023-04-06T08:45:10.496Z,100919.34
2023-04-06T08:46:13.625Z,100921.56
2023-04-06T08:47:16.445Z,100909.19
2023-04-06T08:48:19.693Z,100915.53
2023-04-06T08:49:22.543Z,100909.44
2023-04-06T08:50:25.088Z,100914.75
2023-04-06T08:51:28.543Z,100909.28
2023-04-06T08:52:33.398Z,100905.53
2023-04-06T08:53:36.077Z,100910.56
2023-04-06T08:54:38.006Z,100908.94
2023-04-06T08:55:44.790Z,100908.97
2023-04-06T08:56:48.429Z,100902.28
2023-04-06T08:57:51.104Z,100902.09
2023-04-06T08:58:55.782Z,100909.06
2023-04-06T08:59:59.987Z,100908.06
2023-04-06T09:01:03.131Z,100908.19
2023-04-06T09:02:07.201Z,100911.78
2023-04-06T09:03:10.709Z,100904.16
2023-04-06T09:04:14.380Z,100909.50
2023-04-06T09:05:17.747Z,100911.66
2023-04-06T09:06:19.787Z,100912.25
2023-04-06T09:07:23.411Z,100905.19
2023-04-06T09:08:24.999Z,100909.97
2023-04-06T09:09:27.462Z,100909.97
2023-04-06T09:10:29.840Z,100911.41
2023-04-06T09:11:45.371Z,100912.69
2023-04-06T09:12:47.931Z,100907.69
2023-04-06T09:13:51.114Z,100899.53
2023-04-06T09:14:53.693Z,100908.97
2023-04-06T09:16:02.674Z,100902.81
2023-04-06T09:17:05.295Z,100906.19
2023-04-06T09:18:09.062Z,100903.53
2023-04-06T09:19:12.140Z,100893.81
2023-04-06T09:20:13.708Z,100903.25
2023-04-06T09:21:20.598Z,100896.75
2023-04-06T09:22:25.671Z,100896.44
2023-04-06T09:23:28.478Z,100896.41
2023-04-06T09:24:41.977Z,100890.78
2023-04-06T09:25:44.480Z,100905.03
2023-04-06T09:26:48.125Z,100896.16
2023-04-06T09:27:59.802Z,100896.75
2023-04-06T09:29:04.543Z,100903.59
2023-04-06T09:30:08.295Z,100898.22
2023-04-06T09:31:11.260Z,100902.75
2023-04-06T09:32:17.588Z,100893.81
2023-04-06T09:33:24.887Z,100896.34
2023-04-06T09:34:26.520Z,100893.25
2023-04-06T09:35:31.054Z,100894.88
2023-04-06T09:36:34.280Z,100891.06
2023-04-06T09:37:37.706Z,100902.75
2023-04-06T09:38:41.054Z,100899.72
2023-04-06T09:39:42.602Z,100889.63
2023-04-06T09:41:00.863Z,100899.44
2023-04-06T09:42:05.845Z,100893.78
2023-04-06T09:43:08.315Z,100897.34
2023-04-06T09:44:11.347Z,100893.09
2023-04-06T09:45:14.595Z,100893.16
2023-04-06T09:46:17.239Z,100892.78
2023-04-06T09:47:20.850Z,100894.88
2023-04-06T09:48:23.233Z,100892.56
2023-04-06T09:49:28.171Z,100897.72
2023-04-06T09:50:30.446Z,100892.47
2023-04-06T09:51:39.810Z,100888.75
2023-04-06T09:52:47.244Z,100886.78
2023-04-06T09:53:55.212Z,100884.03
2023-04-06T09:54:59.984Z,100899.31
2023-04-06T09:56:06.057Z,100900.38
2023-04-06T09:57:26.888Z,100890.88
2023-04-06T09:58:34.970Z,100890.09
2023-04-06T09:59:46.027Z,100881.38
2023-04-06T10:00:53.739Z,100887.66
2023-04-06T10:02:00.404Z,100884.16
2023-04-06T10:03:10.878Z,100888.53
2023-04-06T10:04:26.698Z,100875.44
2023-04-06T10:05:38.002Z,100877.59
2023-04-06T10:06:40.416Z,100878.97
2023-04-06T10:07:57.239Z,100877.34
2023-04-06T10:09:04.496Z,100873.75
2023-04-06T10:10:08.499Z,100878.09
2023-04-06T10:11:10.522Z,100882.19
2023-04-06T10:12:15.072Z,100879.50
2023-04-06T10:13:17.117Z,100880.06
2023-04-06T10:14:19.882Z,100880.59
2023-04-06T10:15:23.142Z,100880.88
2023-04-06T10:16:26.667Z,100879.78
2023-04-06T10:17:29.207Z,100884.09
2023-04-06T10:18:32.097Z,100881.97
2023-04-06T10:19:43.135Z,100880.31
2023-04-06T10:20:51.649Z,100882.47
2023-04-06T10:21:59.658Z,100868.31
2023-04-06T10:23:08.384Z,100874.88
2023-04-06T10:24:11.748Z,100877.31
2023-04-06T10:25:14.617Z,100873.75
2023-04-06T10:26:17.666Z,100877.59
2023-04-06T10:27:31.127Z,100871.81
2023-04-06T10:28:36.699Z,100869.94
2023-04-06T10:29:50.195Z,100872.38
2023-04-06T10:30:59.059Z,100872.38
2023-04-06T10:32:01.669Z,100867.19
2023-04-06T10:33:14.600Z,100869.91
2023-04-06T10:34:17.150Z,100872.38
2023-04-06T10:35:18.645Z,100872.03
2023-04-06T10:36:25.244Z,100877.72
2023-04-06T10:37:26.841Z,100869.22
2023-04-06T10:38:39.684Z,100863.00
2023-04-06T10:39:55.720Z,100865.09
2023-04-06T10:41:06.036Z,100859.13
2023-04-06T10:42:08.907Z,100862.16
2023-04-06T10:43:14.039Z,100858.50
2023-04-06T10:44:21.873Z,100861.03
2023-04-06T10:45:24.849Z,100859.66
2023-04-06T10:46:29.156Z,100854.63
2023-04-06T10:47:40.008Z,100850.69
2023-04-06T10:48:44.134Z,100859.50
2023-04-06T10:49:45.795Z,100846.31
2023-04-06T10:50:50.632Z,100852.28
2023-04-06T10:51:54.388Z,100844.34
2023-04-06T10:53:03.802Z,100848.06
2023-04-06T10:54:08.058Z,100852.69
2023-04-06T10:55:13.221Z,100856.22
2023-04-06T10:56:16.962Z,100846.75
2023-04-06T10:57:28.937Z,100855.66
2023-04-06T10:58:35.470Z,100850.47
2023-04-06T10:59:38.225Z,100847.84
2023-04-06T11:00:50.800Z,100842.94
2023-04-06T11:01:54.283Z,100856.78
2023-04-06T11:03:00.461Z,100851.84
2023-04-06T11:04:03.722Z,100854.78
2023-04-06T11:05:07.187Z,100851.84
2023-04-06T11:06:10.058Z,100852.19
2023-04-06T11:07:11.564Z,100851.19
2023-04-06T11:08:24.704Z,100840.94
2023-04-06T11:09:28.095Z,100857.53
2023-04-06T11:10:31.324Z,100848.94
2023-04-06T11:11:35.067Z,100853.97
2023-04-06T11:12:36.882Z,100848.78
2023-04-06T11:13:46.132Z,100838.94
2023-04-06T11:14:55.442Z,100832.00
2023-04-06T11:16:01.496Z,100833.22
2023-04-06T11:17:05.638Z,100839.25
2023-04-06T11:18:07.407Z,100837.22
2023-04-06T11:19:10.583Z,100834.50
2023-04-06T11:20:14.973Z,100844.72
2023-04-06T11:21:17.709Z,100841.47
2023-04-06T11:22:20.277Z,100828.44
2023-04-06T11:23:26.563Z,100836.94
2023-04-06T11:24:29.226Z,100830.88
2023-04-06T11:25:33.613Z,100829.78
2023-04-06T11:26:43.381Z,100834.09
2023-04-06T11:27:46.605Z,100827.69
2023-04-06T11:28:50.543Z,100829.47
2023-04-06T11:29:53.465Z,100837.09
2023-04-06T11:30:55.518Z,100828.00
2023-04-06T11:32:11.450Z,100827.91
2023-04-06T11:33:22.100Z,100817.50
2023-04-06T11:34:25.479Z,100826.75
2023-04-06T11:35:27.271Z,100819.34
2023-04-06T11:36:31.197Z,100819.09
2023-04-06T11:37:37.106Z,100828.13
2023-04-06T11:38:44.164Z,100824.22
2023-04-06T11:39:50.870Z,100831.81
2023-04-06T11:40:54.300Z,100824.81
2023-04-06T11:42:00.319Z,100827.56
2023-04-06T11:43:11.119Z,100828.31
2023-04-06T11:44:16.552Z,100819.88
2023-04-06T11:45:18.075Z,100824.91
2023-04-06T11:46:21.164Z,100812.22
2023-04-06T11:47:30.393Z,100814.91
2023-04-06T11:48:32.143Z,100808.19
2023-04-06T11:49:36.079Z,100810.91
2023-04-06T11:50:38.684Z,100811.44
2023-04-06T11:51:40.950Z,100808.69
2023-04-06T11:52:44.992Z,100806.91
2023-04-06T11:53:46.887Z,100812.00
2023-04-06T11:54:50.948Z,100812.38
2023-04-06T11:55:52.816Z,100804.31
2023-04-06T11:56:56.039Z,100800.88
2023-04-06T11:57:58.621Z,100801.81
2023-04-06T11:59:01.507Z,100803.69
2023-04-06T12:00:05.870Z,100807.06
2023-04-06T12:01:08.516Z,100795.03